sensor_id;sensor_type;location;lat;lon;timestamp;pressure;altitude;pressure_sealevel;temperature
69857;BMP280;57147;53.582;10.112;2023-06-14T00:04:18;101717.13;;;15.33
69857;BMP280;57147;53.582;10.112;2023-06-14T00:09:18;101764.25;;;15.56
69857;BMP280;57147;53.582;10.112;2023-06-14T00:14:22;101782.88;;;15.61
69857;BMP280;57147;53.582;10.112;2023-06-14T00:19:22;101751.91;;;15.33
69857;BMP280;57147;53.582;10.112;2023-06-14T00:24:23;101784.69;;;15.52
69857;BMP280;57147;53.582;10.112;2023-06-14T00:29:26;101779.94;;;15.49
69857;BMP280;57147;53.582;10.112;2023-06-14T00:34:27;101789.69;;;15.45
69857;BMP280;57147;53.582;10.112;2023-06-14T00:39:27;101790.34;;;15.37
69857;BMP280;57147;53.582;10.112;2023-06-14T00:44:31;101787.09;;;15.40
69857;BMP280;57147;53.582;10.112;2023-06-14T00:49:31;101789.88;;;15.35
69857;BMP280;57147;53.582;10.112;2023-06-14T00:54:32;101785.50;;;15.39
69857;BMP280;57147;53.582;10.112;2023-06-14T00:59:38;101798.38;;;15.37
69857;BMP280;57147;53.582;10.112;2023-06-14T01:04:43;101789.47;;;15.28
69857;BMP280;57147;53.582;10.112;2023-06-14T01:09:50;101788.31;;;15.20
69857;BMP280;57147;53.582;10.112;2023-06-14T01:14:57;101776.22;;;14.96
69857;BMP280;57147;53.582;10.112;2023-06-14T01:19:58;101792.78;;;14.98
69857;BMP280;57147;53.582;10.112;2023-06-14T01:25:02;101784.34;;;14.91
69857;BMP280;57147;53.582;10.112;2023-06-14T01:30:03;101793.84;;;14.97
69857;BMP280;57147;53.582;10.112;2023-06-14T01:35:05;101797.41;;;14.92
69857;BMP280;57147;53.582;10.112;2023-06-14T01:40:10;101800.97;;;14.87
69857;BMP280;57147;53.582;10.112;2023-06-14T01:45:10;101793.06;;;14.82
69857;BMP280;57147;53.582;10.112;2023-06-14T01:50:11;101766.44;;;14.59
69857;BMP280;57147;53.582;10.112;2023-06-14T01:55:15;101777.94;;;14.59
69857;BMP280;57147;53.582;10.112;2023-06-14T02:00:17;101775.84;;;14.56
69857;BMP280;57147;53.582;10.112;2023-06-14T02:05:17;101797.06;;;14.66
69857;BMP280;57147;53.582;10.112;2023-06-14T02:10:20;101799.81;;;14.61
69857;BMP280;57147;53.582;10.112;2023-06-14T02:15:21;101799.88;;;14.56
69857;BMP280;57147;53.582;10.112;2023-06-14T02:20:22;101798.09;;;14.52
69857;BMP280;57147;53.582;10.112;2023-06-14T02:25:25;101787.69;;;14.36
69857;BMP280;57147;53.582;10.112;2023-06-14T02:30:25;101789.56;;;14.36
69857;BMP280;57147;53.582;10.112;2023-06-14T02:35:26;101794.91;;;14.36
69857;BMP280;57147;53.582;10.112;2023-06-14T02:40:30;101802.94;;;14.36
69857;BMP280;57147;53.582;10.112;2023-06-14T02:45:30;101791.81;;;14.29
69857;BMP280;57147;53.582;10.112;2023-06-14T02:50:31;101799.25;;;14.32
69857;BMP280;57147;53.582;10.112;2023-06-14T02:55:34;101807.56;;;14.30
69857;BMP280;57147;53.582;10.112;2023-06-14T03:00:34;101801.94;;;14.32
69857;BMP280;57147;53.582;10.112;2023-06-14T03:05:35;101802.56;;;14.24
69857;BMP280;57147;53.582;10.112;2023-06-14T03:10:38;101806.72;;;14.16
69857;BMP280;57147;53.582;10.112;2023-06-14T03:15:39;101819.19;;;14.21
69857;BMP280;57147;53.582;10.112;2023-06-14T03:20:40;101806.91;;;14.20
69857;BMP280;57147;53.582;10.112;2023-06-14T03:25:43;101812.25;;;14.20
69857;BMP280;57147;53.582;10.112;2023-06-14T03:30:43;101812.84;;;14.17
69857;BMP280;57147;53.582;10.112;2023-06-14T03:35:44;101814.41;;;14.18
69857;BMP280;57147;53.582;10.112;2023-06-14T03:40:47;101819.41;;;14.24
69857;BMP280;57147;53.582;10.112;2023-06-14T03:45:48;101822.00;;;14.29
69857;BMP280;57147;53.582;10.112;2023-06-14T03:50:48;101827.78;;;14.36
69857;BMP280;57147;53.582;10.112;2023-06-14T03:55:52;101826.88;;;14.41
69857;BMP280;57147;53.582;10.112;2023-06-14T04:00:52;101848.00;;;14.56
69857;BMP280;57147;53.582;10.112;2023-06-14T04:05:53;101855.38;;;14.64
69857;BMP280;57147;53.582;10.112;2023-06-14T04:10:56;101853.25;;;14.61
69857;BMP280;57147;53.582;10.112;2023-06-14T04:15:57;101865.38;;;14.72
69857;BMP280;57147;53.582;10.112;2023-06-14T04:20:57;101866.91;;;14.78
69857;BMP280;57147;53.582;10.112;2023-06-14T04:26:00;101836.38;;;14.66
69857;BMP280;57147;53.582;10.112;2023-06-14T04:31:01;101884.19;;;15.00
69857;BMP280;57147;53.582;10.112;2023-06-14T04:36:02;101863.41;;;14.97
69857;BMP280;57147;53.582;10.112;2023-06-14T04:41:05;101884.00;;;15.10
69857;BMP280;57147;53.582;10.112;2023-06-14T04:46:06;101878.66;;;15.23
69857;BMP280;57147;53.582;10.112;2023-06-14T04:51:07;101871.72;;;15.36
69857;BMP280;57147;53.582;10.112;2023-06-14T04:56:10;101866.78;;;15.43
69857;BMP280;57147;53.582;10.112;2023-06-14T05:01:10;101878.78;;;15.59
69857;BMP280;57147;53.582;10.112;2023-06-14T05:06:11;101876.91;;;15.60
69857;BMP280;57147;53.582;10.112;2023-06-14T05:11:14;101876.31;;;15.77
69857;BMP280;57147;53.582;10.112;2023-06-14T05:16:15;101878.66;;;15.92
69857;BMP280;57147;53.582;10.112;2023-06-14T05:21:15;101892.31;;;16.04
69857;BMP280;57147;53.582;10.112;2023-06-14T05:26:19;101896.81;;;16.17
69857;BMP280;57147;53.582;10.112;2023-06-14T05:31:19;101900.41;;;16.26
69857;BMP280;57147;53.582;10.112;2023-06-14T05:36:20;101892.81;;;16.28
69857;BMP280;57147;53.582;10.112;2023-06-14T05:41:23;101904.78;;;16.44
69857;BMP280;57147;53.582;10.112;2023-06-14T05:46:24;101911.19;;;16.57
69857;BMP280;57147;53.582;10.112;2023-06-14T05:51:25;101919.31;;;16.66
69857;BMP280;57147;53.582;10.112;2023-06-14T05:56:28;101933.31;;;16.85
69857;BMP280;57147;53.582;10.112;2023-06-14T06:01:29;101941.56;;;16.97
69857;BMP280;57147;53.582;10.112;2023-06-14T06:06:29;101945.09;;;17.06
69857;BMP280;57147;53.582;10.112;2023-06-14T06:11:33;101938.25;;;17.22
69857;BMP280;57147;53.582;10.112;2023-06-14T06:16:33;101953.81;;;17.42
69857;BMP280;57147;53.582;10.112;2023-06-14T06:21:34;101950.22;;;17.55
69857;BMP280;57147;53.582;10.112;2023-06-14T06:26:37;101949.28;;;17.60
69857;BMP280;57147;53.582;10.112;2023-06-14T06:31:38;101969.84;;;17.65
69857;BMP280;57147;53.582;10.112;2023-06-14T06:36:38;101929.31;;;17.44
69857;BMP280;57147;53.582;10.112;2023-06-14T06:41:42;101961.97;;;17.85
69857;BMP280;57147;53.582;10.112;2023-06-14T06:46:43;101971.31;;;17.88
69857;BMP280;57147;53.582;10.112;2023-06-14T06:51:59;101951.72;;;17.79
69857;BMP280;57147;53.582;10.112;2023-06-14T06:57:02;101995.88;;;18.12
69857;BMP280;57147;53.582;10.112;2023-06-14T07:02:03;101953.94;;;17.94
69857;BMP280;57147;53.582;10.112;2023-06-14T07:07:04;101989.22;;;18.27
69857;BMP280;57147;53.582;10.112;2023-06-14T07:12:08;102007.75;;;18.45
69857;BMP280;57147;53.582;10.112;2023-06-14T07:17:08;101998.88;;;18.45
69857;BMP280;57147;53.582;10.112;2023-06-14T07:22:09;102013.78;;;18.60
69857;BMP280;57147;53.582;10.112;2023-06-14T07:27:12;102004.56;;;18.78
69857;BMP280;57147;53.582;10.112;2023-06-14T07:32:13;102006.44;;;18.86
69857;BMP280;57147;53.582;10.112;2023-06-14T07:37:13;101997.25;;;18.96
69857;BMP280;57147;53.582;10.112;2023-06-14T07:42:17;101989.59;;;19.06
69857;BMP280;57147;53.582;10.112;2023-06-14T07:47:17;101899.56;;;18.49
69857;BMP280;57147;53.582;10.112;2023-06-14T07:52:18;102006.16;;;19.34
69857;BMP280;57147;53.582;10.112;2023-06-14T07:57:21;101996.16;;;19.34
69857;BMP280;57147;53.582;10.112;2023-06-14T08:02:21;101995.63;;;19.50
69857;BMP280;57147;53.582;10.112;2023-06-14T08:07:22;102006.94;;;19.64
69857;BMP280;57147;53.582;10.112;2023-06-14T08:12:25;101972.56;;;19.61
69857;BMP280;57147;53.582;10.112;2023-06-14T08:17:26;101971.16;;;19.84
69857;BMP280;57147;53.582;10.112;2023-06-14T08:22:27;101994.69;;;20.16
69857;BMP280;57147;53.582;10.112;2023-06-14T08:27:30;102001.78;;;20.42
69857;BMP280;57147;53.582;10.112;2023-06-14T08:32:31;101929.59;;;20.26
69857;BMP280;57147;53.582;10.112;2023-06-14T08:37:31;102005.75;;;20.89
69857;BMP280;57147;53.582;10.112;2023-06-14T08:42:36;101996.22;;;21.04
69857;BMP280;57147;53.582;10.112;2023-06-14T08:47:38;101996.81;;;21.21
69857;BMP280;57147;53.582;10.112;2023-06-14T08:52:40;101994.06;;;21.33
69857;BMP280;57147;53.582;10.112;2023-06-14T08:57:44;101992.94;;;21.47
69857;BMP280;57147;53.582;10.112;2023-06-14T09:02:46;101999.25;;;21.63
69857;BMP280;57147;53.582;10.112;2023-06-14T09:08:01;101989.09;;;21.72
69857;BMP280;57147;53.582;10.112;2023-06-14T09:18:39;101998.72;;;21.97
69857;BMP280;57147;53.582;10.112;2023-06-14T09:23:41;101971.44;;;22.02
69857;BMP280;57147;53.582;10.112;2023-06-14T09:28:42;101997.09;;;22.36
69857;BMP280;57147;53.582;10.112;2023-06-14T09:33:47;102003.34;;;22.68
69857;BMP280;57147;53.582;10.112;2023-06-14T09:38:58;101999.31;;;23.09
69857;BMP280;57147;53.582;10.112;2023-06-14T09:43:59;101984.44;;;23.03
69857;BMP280;57147;53.582;10.112;2023-06-14T09:49:03;101983.66;;;23.18
69857;BMP280;57147;53.582;10.112;2023-06-14T09:54:05;101990.50;;;23.47
69857;BMP280;57147;53.582;10.112;2023-06-14T09:59:06;101986.53;;;23.79
69857;BMP280;57147;53.582;10.112;2023-06-14T10:04:13;101986.47;;;23.95
69857;BMP280;57147;53.582;10.112;2023-06-14T10:09:16;101981.38;;;24.12
69857;BMP280;57147;53.582;10.112;2023-06-14T10:14:17;101981.50;;;24.00
69857;BMP280;57147;53.582;10.112;2023-06-14T10:19:23;101982.97;;;24.36
69857;BMP280;57147;53.582;10.112;2023-06-14T10:24:29;101983.66;;;24.78
69857;BMP280;57147;53.582;10.112;2023-06-14T10:29:31;101934.78;;;24.78
69857;BMP280;57147;53.582;10.112;2023-06-14T10:34:38;101983.16;;;25.52
69857;BMP280;57147;53.582;10.112;2023-06-14T10:39:40;101969.72;;;25.99
69857;BMP280;57147;53.582;10.112;2023-06-14T10:44:43;101976.53;;;26.70
69857;BMP280;57147;53.582;10.112;2023-06-14T10:49:50;101967.50;;;26.15
69857;BMP280;57147;53.582;10.112;2023-06-14T10:55:07;101956.63;;;25.41
69857;BMP280;57147;53.582;10.112;2023-06-14T11:00:09;101963.13;;;25.67
69857;BMP280;57147;53.582;10.112;2023-06-14T11:05:14;101953.66;;;26.31
69857;BMP280;57147;53.582;10.112;2023-06-14T11:10:26;101952.31;;;26.11
69857;BMP280;57147;53.582;10.112;2023-06-14T11:15:29;101932.03;;;25.31
69857;BMP280;57147;53.582;10.112;2023-06-14T11:20:34;101940.13;;;25.27
69857;BMP280;57147;53.582;10.112;2023-06-14T11:25:35;101938.25;;;25.31
69857;BMP280;57147;53.582;10.112;2023-06-14T11:30:35;101937.06;;;25.66
69857;BMP280;57147;53.582;10.112;2023-06-14T11:35:39;101926.94;;;25.29
69857;BMP280;57147;53.582;10.112;2023-06-14T11:40:39;101925.63;;;24.90
69857;BMP280;57147;53.582;10.112;2023-06-14T11:45:40;101921.78;;;25.91
69857;BMP280;57147;53.582;10.112;2023-06-14T11:50:43;101925.00;;;27.16
69857;BMP280;57147;53.582;10.112;2023-06-14T11:55:44;101915.38;;;27.86
69857;BMP280;57147;53.582;10.112;2023-06-14T12:00:48;101913.84;;;27.95
69857;BMP280;57147;53.582;10.112;2023-06-14T12:06:01;101924.31;;;27.61
69857;BMP280;57147;53.582;10.112;2023-06-14T12:11:03;101902.28;;;26.91
69857;BMP280;57147;53.582;10.112;2023-06-14T12:16:03;101908.63;;;26.47
69857;BMP280;57147;53.582;10.112;2023-06-14T12:21:07;101903.91;;;26.37
69857;BMP280;57147;53.582;10.112;2023-06-14T12:26:08;101900.31;;;26.88
69857;BMP280;57147;53.582;10.112;2023-06-14T12:31:10;101885.75;;;27.66
69857;BMP280;57147;53.582;10.112;2023-06-14T12:36:13;101863.84;;;28.30
69857;BMP280;57147;53.582;10.112;2023-06-14T12:41:14;101866.00;;;28.84
69857;BMP280;57147;53.582;10.112;2023-06-14T12:46:14;101857.81;;;28.81
69857;BMP280;57147;53.582;10.112;2023-06-14T12:51:18;101889.66;;;29.71
69857;BMP280;57147;53.582;10.112;2023-06-14T12:56:19;101891.28;;;29.65
69857;BMP280;57147;53.582;10.112;2023-06-14T13:01:20;101890.31;;;29.85
69857;BMP280;57147;53.582;10.112;2023-06-14T13:06:29;101893.06;;;30.23
69857;BMP280;57147;53.582;10.112;2023-06-14T13:11:30;101897.13;;;30.07
69857;BMP280;57147;53.582;10.112;2023-06-14T13:16:32;101891.75;;;30.38
69857;BMP280;57147;53.582;10.112;2023-06-14T13:21:36;101888.97;;;30.98
69857;BMP280;57147;53.582;10.112;2023-06-14T13:26:37;101875.06;;;31.12
69857;BMP280;57147;53.582;10.112;2023-06-14T13:31:38;101878.13;;;30.61
69857;BMP280;57147;53.582;10.112;2023-06-14T13:36:43;101877.38;;;29.45
69857;BMP280;57147;53.582;10.112;2023-06-14T13:41:43;101878.66;;;28.43
69857;BMP280;57147;53.582;10.112;2023-06-14T13:46:44;101822.56;;;27.93
69857;BMP280;57147;53.582;10.112;2023-06-14T13:51:47;101874.38;;;29.73
69857;BMP280;57147;53.582;10.112;2023-06-14T13:56:48;101875.13;;;30.14
69857;BMP280;57147;53.582;10.112;2023-06-14T14:01:49;101866.69;;;29.98
69857;BMP280;57147;53.582;10.112;2023-06-14T14:06:52;101853.28;;;31.02
69857;BMP280;57147;53.582;10.112;2023-06-14T14:11:52;101857.22;;;30.74
69857;BMP280;57147;53.582;10.112;2023-06-14T14:16:53;101871.13;;;29.41
69857;BMP280;57147;53.582;10.112;2023-06-14T14:21:56;101861.97;;;27.78
69857;BMP280;57147;53.582;10.112;2023-06-14T14:27:03;101865.28;;;26.90
69857;BMP280;57147;53.582;10.112;2023-06-14T14:32:05;101828.75;;;28.18
69857;BMP280;57147;53.582;10.112;2023-06-14T14:37:09;101869.16;;;28.72
69857;BMP280;57147;53.582;10.112;2023-06-14T14:42:10;101853.66;;;29.21
69857;BMP280;57147;53.582;10.112;2023-06-14T14:47:11;101867.28;;;29.79
69857;BMP280;57147;53.582;10.112;2023-06-14T14:52:14;101855.97;;;30.48
69857;BMP280;57147;53.582;10.112;2023-06-14T14:57:15;101838.06;;;30.97
69857;BMP280;57147;53.582;10.112;2023-06-14T15:02:17;101862.47;;;31.42
69857;BMP280;57147;53.582;10.112;2023-06-14T15:07:20;101866.13;;;31.08
69857;BMP280;57147;53.582;10.112;2023-06-14T15:12:22;101858.75;;;31.28
69857;BMP280;57147;53.582;10.112;2023-06-14T15:17:22;101848.50;;;31.56
69857;BMP280;57147;53.582;10.112;2023-06-14T15:22:25;101862.97;;;31.33
69857;BMP280;57147;53.582;10.112;2023-06-14T15:27:26;101844.41;;;31.41
69857;BMP280;57147;53.582;10.112;2023-06-14T15:32:27;101866.72;;;31.19
69857;BMP280;57147;53.582;10.112;2023-06-14T15:37:30;101858.16;;;31.41
69857;BMP280;57147;53.582;10.112;2023-06-14T15:42:31;101847.88;;;31.21
69857;BMP280;57147;53.582;10.112;2023-06-14T15:47:31;101813.75;;;31.22
69857;BMP280;57147;53.582;10.112;2023-06-14T15:52:35;101853.94;;;31.79
69857;BMP280;57147;53.582;10.112;2023-06-14T15:57:35;101836.56;;;31.43
69857;BMP280;57147;53.582;10.112;2023-06-14T16:02:36;101854.28;;;31.11
69857;BMP280;57147;53.582;10.112;2023-06-14T16:07:40;101855.53;;;31.57
69857;BMP280;57147;53.582;10.112;2023-06-14T16:12:40;101852.59;;;30.37
69857;BMP280;57147;53.582;10.112;2023-06-14T16:17:41;101862.28;;;30.45
69857;BMP280;57147;53.582;10.112;2023-06-14T16:22:44;101859.16;;;30.47
69857;BMP280;57147;53.582;10.112;2023-06-14T16:27:45;101861.94;;;31.00
69857;BMP280;57147;53.582;10.112;2023-06-14T16:32:48;101860.47;;;30.32
69857;BMP280;57147;53.582;10.112;2023-06-14T16:37:51;101873.66;;;29.69
69857;BMP280;57147;53.582;10.112;2023-06-14T16:42:52;101866.13;;;29.80
69857;BMP280;57147;53.582;10.112;2023-06-14T16:47:53;101859.97;;;29.69
69857;BMP280;57147;53.582;10.112;2023-06-14T16:52:56;101834.59;;;30.02
69857;BMP280;57147;53.582;10.112;2023-06-14T16:57:57;101879.38;;;31.13
69857;BMP280;57147;53.582;10.112;2023-06-14T17:02:57;101870.56;;;31.25
69857;BMP280;57147;53.582;10.112;2023-06-14T17:08:03;101875.09;;;30.82
69857;BMP280;57147;53.582;10.112;2023-06-14T17:13:04;101865.34;;;30.51
69857;BMP280;57147;53.582;10.112;2023-06-14T17:18:04;101857.84;;;30.25
69857;BMP280;57147;53.582;10.112;2023-06-14T17:28:38;101885.72;;;29.75
69857;BMP280;57147;53.582;10.112;2023-06-14T17:33:39;101882.88;;;29.38
69857;BMP280;57147;53.582;10.112;2023-06-14T17:38:40;101881.78;;;29.28
69857;BMP280;57147;53.582;10.112;2023-06-14T17:43:43;101887.72;;;29.13
69857;BMP280;57147;53.582;10.112;2023-06-14T17:48:44;101883.53;;;28.98
69857;BMP280;57147;53.582;10.112;2023-06-14T17:53:44;101893.47;;;28.39
69857;BMP280;57147;53.582;10.112;2023-06-14T17:58:48;101856.88;;;27.58
69857;BMP280;57147;53.582;10.112;2023-06-14T18:03:50;101898.94;;;28.35
69857;BMP280;57147;53.582;10.112;2023-06-14T18:08:51;101903.22;;;29.37
69857;BMP280;57147;53.582;10.112;2023-06-14T18:13:54;101889.25;;;30.13
69857;BMP280;57147;53.582;10.112;2023-06-14T18:18:55;101902.38;;;29.91
69857;BMP280;57147;53.582;10.112;2023-06-14T18:23:56;101873.97;;;28.40
69857;BMP280;57147;53.582;10.112;2023-06-14T18:28:59;101902.69;;;28.90
69857;BMP280;57147;53.582;10.112;2023-06-14T18:34:00;101907.22;;;28.14
69857;BMP280;57147;53.582;10.112;2023-06-14T18:39:01;101913.81;;;27.63
69857;BMP280;57147;53.582;10.112;2023-06-14T18:44:04;101866.59;;;25.94
69857;BMP280;57147;53.582;10.112;2023-06-14T18:49:04;101912.50;;;25.59
69857;BMP280;57147;53.582;10.112;2023-06-14T18:54:05;101912.38;;;25.15
69857;BMP280;57147;53.582;10.112;2023-06-14T18:59:08;101922.59;;;24.95
69857;BMP280;57147;53.582;10.112;2023-06-14T19:04:12;101905.25;;;24.77
69857;BMP280;57147;53.582;10.112;2023-06-14T19:09:12;101851.66;;;23.76
69857;BMP280;57147;53.582;10.112;2023-06-14T19:14:16;101920.44;;;23.29
69857;BMP280;57147;53.582;10.112;2023-06-14T19:19:16;101927.94;;;23.01
69857;BMP280;57147;53.582;10.112;2023-06-14T19:24:18;101919.69;;;22.63
69857;BMP280;57147;53.582;10.112;2023-06-14T19:29:21;101921.91;;;22.29
69857;BMP280;57147;53.582;10.112;2023-06-14T19:34:22;101922.97;;;21.97
69857;BMP280;57147;53.582;10.112;2023-06-14T19:39:23;101936.50;;;21.97
69857;BMP280;57147;53.582;10.112;2023-06-14T19:44:26;101946.19;;;21.58
69857;BMP280;57147;53.582;10.112;2023-06-14T19:49:27;101908.25;;;21.03
69857;BMP280;57147;53.582;10.112;2023-06-14T19:54:28;101942.72;;;20.73
69857;BMP280;57147;53.582;10.112;2023-06-14T19:59:31;101944.72;;;20.64
69857;BMP280;57147;53.582;10.112;2023-06-14T20:04:32;101949.63;;;20.38
69857;BMP280;57147;53.582;10.112;2023-06-14T20:09:33;101943.81;;;20.15
69857;BMP280;57147;53.582;10.112;2023-06-14T20:14:36;101956.50;;;20.14
69857;BMP280;57147;53.582;10.112;2023-06-14T20:19:37;101957.28;;;19.94
69857;BMP280;57147;53.582;10.112;2023-06-14T20:24:37;101951.88;;;19.53
69857;BMP280;57147;53.582;10.112;2023-06-14T20:29:41;101956.25;;;19.36
69857;BMP280;57147;53.582;10.112;2023-06-14T20:34:41;101942.75;;;19.07
69857;BMP280;57147;53.582;10.112;2023-06-14T20:39:42;101945.03;;;18.71
69857;BMP280;57147;53.582;10.112;2023-06-14T20:44:45;101958.72;;;18.66
69857;BMP280;57147;53.582;10.112;2023-06-14T20:49:46;101961.88;;;18.51
69857;BMP280;57147;53.582;10.112;2023-06-14T20:54:47;101952.38;;;18.44
69857;BMP280;57147;53.582;10.112;2023-06-14T20:59:50;101942.09;;;18.38
69857;BMP280;57147;53.582;10.112;2023-06-14T21:04:51;101954.91;;;18.24
69857;BMP280;57147;53.582;10.112;2023-06-14T21:09:52;101958.81;;;17.92
69857;BMP280;57147;53.582;10.112;2023-06-14T21:14:57;101944.75;;;17.78
69857;BMP280;57147;53.582;10.112;2023-06-14T21:19:58;101920.19;;;17.45
69857;BMP280;57147;53.582;10.112;2023-06-14T21:24:58;101960.50;;;17.53
69857;BMP280;57147;53.582;10.112;2023-06-14T21:30:08;101963.47;;;17.52
69857;BMP280;57147;53.582;10.112;2023-06-14T21:35:09;101968.16;;;17.38
69857;BMP280;57147;53.582;10.112;2023-06-14T21:40:11;101967.31;;;17.29
69857;BMP280;57147;53.582;10.112;2023-06-14T21:45:14;101968.50;;;17.14
69857;BMP280;57147;53.582;10.112;2023-06-14T21:50:15;101965.34;;;17.12
69857;BMP280;57147;53.582;10.112;2023-06-14T21:55:16;101963.03;;;16.97
69857;BMP280;57147;53.582;10.112;2023-06-14T22:00:19;101964.91;;;16.88
69857;BMP280;57147;53.582;10.112;2023-06-14T22:05:20;101968.06;;;16.90
69857;BMP280;57147;53.582;10.112;2023-06-14T22:10:21;101963.13;;;16.83
69857;BMP280;57147;53.582;10.112;2023-06-14T22:15:24;101947.47;;;16.54
69857;BMP280;57147;53.582;10.112;2023-06-14T22:20:25;101959.28;;;16.53
69857;BMP280;57147;53.582;10.112;2023-06-14T22:25:28;101960.25;;;16.57
69857;BMP280;57147;53.582;10.112;2023-06-14T22:30:36;101883.81;;;16.02
69857;BMP280;57147;53.582;10.112;2023-06-14T22:35:36;101956.94;;;16.38
69857;BMP280;57147;53.582;10.112;2023-06-14T22:40:37;101961.13;;;16.17
69857;BMP280;57147;53.582;10.112;2023-06-14T22:45:40;101964.72;;;16.26
69857;BMP280;57147;53.582;10.112;2023-06-14T22:50:40;101932.63;;;15.99
69857;BMP280;57147;53.582;10.112;2023-06-14T22:55:41;101954.25;;;16.02
69857;BMP280;57147;53.582;10.112;2023-06-14T23:00:44;101947.78;;;16.03
69857;BMP280;57147;53.582;10.112;2023-06-14T23:05:45;101951.88;;;16.01
69857;BMP280;57147;53.582;10.112;2023-06-14T23:10:45;101947.53;;;15.91
69857;BMP280;57147;53.582;10.112;2023-06-14T23:15:49;101948.19;;;15.83
69857;BMP280;57147;53.582;10.112;2023-06-14T23:20:49;101947.03;;;15.75
69857;BMP280;57147;53.582;10.112;2023-06-14T23:25:50;101947.50;;;15.64
69857;BMP280;57147;53.582;10.112;2023-06-14T23:30:53;101937.19;;;15.57
69857;BMP280;57147;53.582;10.112;2023-06-14T23:35:54;101947.59;;;15.59
69857;BMP280;57147;53.582;10.112;2023-06-14T23:40:54;101946.50;;;15.46
69857;BMP280;57147;53.582;10.112;2023-06-14T23:45:57;101940.84;;;15.34
69857;BMP280;57147;53.582;10.112;2023-06-14T23:50:58;101933.97;;;15.28
69857;BMP280;57147;53.582;10.112;2023-06-14T23:55:59;101936.25;;;15.21
